sensor_id;sensor_type;location;lat;lon;timestamp;pressure;altitude;pressure_sealevel;temperature;humidity
13869;BME280;7004;48.206;16.402;2024-01-27T00:00:11;100707.16;;;7.38;62.51
13869;BME280;7004;48.206;16.402;2024-01-27T00:02:38;100684.91;;;7.47;61.92
13869;BME280;7004;48.206;16.402;2024-01-27T00:05:05;100706.03;;;7.45;61.94
13869;BME280;7004;48.206;16.402;2024-01-27T00:07:31;100711.88;;;7.28;62.95
13869;BME280;7004;48.206;16.402;2024-01-27T00:09:57;100716.56;;;7.45;62.65
13869;BME280;7004;48.206;16.402;2024-01-27T00:12:25;100722.81;;;7.41;61.85
13869;BME280;7004;48.206;16.402;2024-01-27T00:14:54;100713.97;;;7.43;61.47
13869;BME280;7004;48.206;16.402;2024-01-27T00:17:22;100709.34;;;7.25;61.38
13869;BME280;7004;48.206;16.402;2024-01-27T00:19:51;100720.56;;;7.30;61.84
13869;BME280;7004;48.206;16.402;2024-01-27T00:22:17;100720.84;;;7.48;61.38
13869;BME280;7004;48.206;16.402;2024-01-27T00:24:44;100723.03;;;7.35;61.61
13869;BME280;7004;48.206;16.402;2024-01-27T00:27:11;100735.78;;;7.47;61.17
13869;BME280;7004;48.206;16.402;2024-01-27T00:29:37;100747.19;;;7.46;60.93
13869;BME280;7004;48.206;16.402;2024-01-27T00:32:03;100749.91;;;7.44;61.22
13869;BME280;7004;48.206;16.402;2024-01-27T00:34:30;100766.13;;;7.31;60.82
13869;BME280;7004;48.206;16.402;2024-01-27T00:36:56;100765.47;;;7.51;59.86
13869;BME280;7004;48.206;16.402;2024-01-27T00:39:22;100783.06;;;7.49;60.01
13869;BME280;7004;48.206;16.402;2024-01-27T00:41:49;100767.66;;;7.38;60.45
13869;BME280;7004;48.206;16.402;2024-01-27T00:44:15;100781.28;;;7.49;59.20
13869;BME280;7004;48.206;16.402;2024-01-27T00:46:41;100778.63;;;7.51;60.11
13869;BME280;7004;48.206;16.402;2024-01-27T00:49:08;100769.88;;;7.50;59.30
13869;BME280;7004;48.206;16.402;2024-01-27T00:51:35;100798.38;;;7.62;58.09
13869;BME280;7004;48.206;16.402;2024-01-27T00:54:01;100786.56;;;7.49;58.84
13869;BME280;7004;48.206;16.402;2024-01-27T00:56:27;100772.81;;;7.41;58.87
13869;BME280;7004;48.206;16.402;2024-01-27T00:58:54;100766.84;;;7.36;59.32
13869;BME280;7004;48.206;16.402;2024-01-27T01:01:20;100768.56;;;7.37;58.85
13869;BME280;7004;48.206;16.402;2024-01-27T01:03:47;100762.34;;;7.39;58.54
13869;BME280;7004;48.206;16.402;2024-01-27T01:06:13;100761.47;;;7.39;58.48
13869;BME280;7004;48.206;16.402;2024-01-27T01:08:39;100775.06;;;7.52;57.93
13869;BME280;7004;48.206;16.402;2024-01-27T01:11:05;100790.66;;;7.31;58.33
13869;BME280;7004;48.206;16.402;2024-01-27T01:13:32;100786.66;;;7.46;58.24
13869;BME280;7004;48.206;16.402;2024-01-27T01:15:58;100786.09;;;7.36;58.07
13869;BME280;7004;48.206;16.402;2024-01-27T01:18:24;100783.44;;;7.38;58.52
13869;BME280;7004;48.206;16.402;2024-01-27T01:20:50;100799.50;;;7.29;59.38
13869;BME280;7004;48.206;16.402;2024-01-27T01:23:16;100811.19;;;7.20;59.21
13869;BME280;7004;48.206;16.402;2024-01-27T01:25:42;100819.22;;;7.15;59.43
13869;BME280;7004;48.206;16.402;2024-01-27T01:28:11;100810.03;;;7.29;59.23
13869;BME280;7004;48.206;16.402;2024-01-27T01:30:38;100815.63;;;7.18;60.15
13869;BME280;7004;48.206;16.402;2024-01-27T01:33:04;100819.53;;;7.06;61.48
13869;BME280;7004;48.206;16.402;2024-01-27T01:35:30;100833.53;;;7.07;61.12
13869;BME280;7004;48.206;16.402;2024-01-27T01:37:56;100836.75;;;7.16;60.84
13869;BME280;7004;48.206;16.402;2024-01-27T01:40:23;100819.66;;;7.02;61.27
13869;BME280;7004;48.206;16.402;2024-01-27T01:42:52;100815.94;;;7.09;60.51
13869;BME280;7004;48.206;16.402;2024-01-27T01:45:19;100834.81;;;7.21;58.35
13869;BME280;7004;48.206;16.402;2024-01-27T01:47:46;100839.31;;;7.18;59.66
13869;BME280;7004;48.206;16.402;2024-01-27T01:50:12;100830.75;;;7.11;60.93
13869;BME280;7004;48.206;16.402;2024-01-27T01:52:39;100825.69;;;7.05;61.77
13869;BME280;7004;48.206;16.402;2024-01-27T01:55:05;100823.88;;;7.07;62.60
13869;BME280;7004;48.206;16.402;2024-01-27T01:57:33;100828.66;;;6.94;62.60
13869;BME280;7004;48.206;16.402;2024-01-27T02:00:00;100824.25;;;6.95;64.06
13869;BME280;7004;48.206;16.402;2024-01-27T02:02:26;100817.38;;;6.91;64.24
13869;BME280;7004;48.206;16.402;2024-01-27T02:04:52;100810.38;;;6.90;65.03
13869;BME280;7004;48.206;16.402;2024-01-27T02:07:18;100819.88;;;6.95;65.36
13869;BME280;7004;48.206;16.402;2024-01-27T02:09:44;100815.75;;;6.87;65.66
13869;BME280;7004;48.206;16.402;2024-01-27T02:12:10;100824.97;;;6.72;65.20
13869;BME280;7004;48.206;16.402;2024-01-27T02:14:36;100823.00;;;6.78;65.06
13869;BME280;7004;48.206;16.402;2024-01-27T02:17:03;100826.88;;;6.67;64.84
13869;BME280;7004;48.206;16.402;2024-01-27T02:19:30;100832.06;;;6.68;64.32
13869;BME280;7004;48.206;16.402;2024-01-27T02:21:56;100852.22;;;6.68;64.55
13869;BME280;7004;48.206;16.402;2024-01-27T02:24:22;100852.25;;;6.66;65.29
13869;BME280;7004;48.206;16.402;2024-01-27T02:26:49;100857.53;;;6.66;65.14
13869;BME280;7004;48.206;16.402;2024-01-27T02:29:15;100858.44;;;6.65;65.62
13869;BME280;7004;48.206;16.402;2024-01-27T02:31:41;100864.81;;;6.86;66.03
13869;BME280;7004;48.206;16.402;2024-01-27T02:34:08;100865.56;;;6.62;67.05
13869;BME280;7004;48.206;16.402;2024-01-27T02:36:34;100864.81;;;6.56;67.31
13869;BME280;7004;48.206;16.402;2024-01-27T02:39:00;100878.19;;;6.78;66.48
13869;BME280;7004;48.206;16.402;2024-01-27T02:41:27;100875.97;;;6.65;66.66
13869;BME280;7004;48.206;16.402;2024-01-27T02:43:53;100881.44;;;6.57;67.58
13869;BME280;7004;48.206;16.402;2024-01-27T02:46:20;100874.59;;;6.51;67.68
13869;BME280;7004;48.206;16.402;2024-01-27T02:48:46;100896.41;;;6.53;68.39
13869;BME280;7004;48.206;16.402;2024-01-27T02:51:12;100895.25;;;6.64;68.22
13869;BME280;7004;48.206;16.402;2024-01-27T02:53:39;100898.97;;;6.56;68.07
13869;BME280;7004;48.206;16.402;2024-01-27T02:56:07;100914.59;;;6.61;67.86
13869;BME280;7004;48.206;16.402;2024-01-27T02:58:36;100903.56;;;6.48;67.90
13869;BME280;7004;48.206;16.402;2024-01-27T03:01:02;100913.91;;;6.54;67.04
13869;BME280;7004;48.206;16.402;2024-01-27T03:03:30;100919.19;;;6.53;66.83
13869;BME280;7004;48.206;16.402;2024-01-27T03:05:56;100913.84;;;6.56;67.04
13869;BME280;7004;48.206;16.402;2024-01-27T03:08:23;100917.28;;;6.60;66.98
13869;BME280;7004;48.206;16.402;2024-01-27T03:10:49;100922.97;;;6.43;66.70
13869;BME280;7004;48.206;16.402;2024-01-27T03:13:15;100913.22;;;6.48;65.96
13869;BME280;7004;48.206;16.402;2024-01-27T03:15:44;100931.47;;;6.52;65.65
13869;BME280;7004;48.206;16.402;2024-01-27T03:18:17;100937.03;;;6.42;66.03
13869;BME280;7004;48.206;16.402;2024-01-27T03:20:44;100936.22;;;6.71;64.77
13869;BME280;7004;48.206;16.402;2024-01-27T03:23:10;100935.22;;;6.44;66.08
13869;BME280;7004;48.206;16.402;2024-01-27T03:25:36;100938.66;;;6.46;66.07
13869;BME280;7004;48.206;16.402;2024-01-27T03:28:04;100943.84;;;6.49;65.51
13869;BME280;7004;48.206;16.402;2024-01-27T03:30:30;100921.28;;;6.42;66.38
13869;BME280;7004;48.206;16.402;2024-01-27T03:32:57;100952.53;;;6.51;65.60
13869;BME280;7004;48.206;16.402;2024-01-27T03:35:24;100960.34;;;6.54;65.53
13869;BME280;7004;48.206;16.402;2024-01-27T03:37:51;100973.53;;;6.51;65.29
13869;BME280;7004;48.206;16.402;2024-01-27T03:40:18;100969.03;;;6.23;66.20
13869;BME280;7004;48.206;16.402;2024-01-27T03:42:44;100975.50;;;6.43;65.92
13869;BME280;7004;48.206;16.402;2024-01-27T03:45:10;100975.38;;;6.49;66.17
13869;BME280;7004;48.206;16.402;2024-01-27T03:47:37;100993.34;;;6.30;66.61
13869;BME280;7004;48.206;16.402;2024-01-27T03:50:03;100987.09;;;6.36;65.30
13869;BME280;7004;48.206;16.402;2024-01-27T03:52:30;100996.03;;;6.28;65.02
13869;BME280;7004;48.206;16.402;2024-01-27T03:54:56;100991.53;;;6.33;64.34
13869;BME280;7004;48.206;16.402;2024-01-27T03:57:22;100995.97;;;6.30;64.20
13869;BME280;7004;48.206;16.402;2024-01-27T03:59:48;100996.72;;;6.35;64.29
13869;BME280;7004;48.206;16.402;2024-01-27T04:02:15;100999.78;;;6.18;65.33
13869;BME280;7004;48.206;16.402;2024-01-27T04:04:41;100998.94;;;6.18;66.82
13869;BME280;7004;48.206;16.402;2024-01-27T04:07:08;100999.03;;;6.13;67.94
13869;BME280;7004;48.206;16.402;2024-01-27T04:09:34;100999.22;;;6.05;67.62
13869;BME280;7004;48.206;16.402;2024-01-27T04:12:00;101001.69;;;6.11;67.68
13869;BME280;7004;48.206;16.402;2024-01-27T04:14:26;100997.00;;;6.24;67.17
13869;BME280;7004;48.206;16.402;2024-01-27T04:16:53;100999.50;;;5.95;68.36
13869;BME280;7004;48.206;16.402;2024-01-27T04:19:20;100989.78;;;5.98;67.74
13869;BME280;7004;48.206;16.402;2024-01-27T04:21:46;100995.31;;;6.22;66.72
13869;BME280;7004;48.206;16.402;2024-01-27T04:24:12;100995.97;;;5.96;67.96
13869;BME280;7004;48.206;16.402;2024-01-27T04:26:39;100994.94;;;6.01;67.05
13869;BME280;7004;48.206;16.402;2024-01-27T04:29:06;100992.97;;;6.11;66.59
13869;BME280;7004;48.206;16.402;2024-01-27T04:31:32;100985.16;;;6.08;67.38
13869;BME280;7004;48.206;16.402;2024-01-27T04:33:58;101000.06;;;6.07;67.02
13869;BME280;7004;48.206;16.402;2024-01-27T04:36:28;101006.53;;;5.91;67.40
13869;BME280;7004;48.206;16.402;2024-01-27T04:38:55;100999.53;;;5.91;68.92
13869;BME280;7004;48.206;16.402;2024-01-27T04:41:21;101002.06;;;5.96;68.59
13869;BME280;7004;48.206;16.402;2024-01-27T04:43:47;101009.16;;;5.91;69.42
13869;BME280;7004;48.206;16.402;2024-01-27T04:46:14;101009.22;;;5.88;69.76
13869;BME280;7004;48.206;16.402;2024-01-27T04:48:40;101013.91;;;5.75;70.52
13869;BME280;7004;48.206;16.402;2024-01-27T04:51:06;101010.63;;;5.65;69.42
13869;BME280;7004;48.206;16.402;2024-01-27T04:53:32;101017.28;;;5.80;69.72
13869;BME280;7004;48.206;16.402;2024-01-27T04:55:58;101035.06;;;5.67;70.50
13869;BME280;7004;48.206;16.402;2024-01-27T04:58:24;101035.44;;;5.89;69.64
13869;BME280;7004;48.206;16.402;2024-01-27T05:00:50;101020.75;;;5.82;70.62
13869;BME280;7004;48.206;16.402;2024-01-27T05:03:18;101030.66;;;5.68;70.89
13869;BME280;7004;48.206;16.402;2024-01-27T05:05:44;101036.97;;;5.61;71.28
13869;BME280;7004;48.206;16.402;2024-01-27T05:08:10;101046.91;;;5.85;69.80
13869;BME280;7004;48.206;16.402;2024-01-27T05:10:36;101054.13;;;5.76;70.30
13869;BME280;7004;48.206;16.402;2024-01-27T05:13:02;101055.69;;;5.84;68.36
13869;BME280;7004;48.206;16.402;2024-01-27T05:15:29;101068.00;;;5.81;68.63
13869;BME280;7004;48.206;16.402;2024-01-27T05:17:55;101064.72;;;5.71;68.84
13869;BME280;7004;48.206;16.402;2024-01-27T05:20:21;101071.53;;;5.80;68.13
13869;BME280;7004;48.206;16.402;2024-01-27T05:22:47;101071.72;;;5.70;67.28
13869;BME280;7004;48.206;16.402;2024-01-27T05:25:14;101080.91;;;5.90;66.22
13869;BME280;7004;48.206;16.402;2024-01-27T05:27:41;101083.69;;;5.84;66.23
13869;BME280;7004;48.206;16.402;2024-01-27T05:30:08;101092.28;;;5.90;66.27
13869;BME280;7004;48.206;16.402;2024-01-27T05:32:35;101097.91;;;5.74;67.87
13869;BME280;7004;48.206;16.402;2024-01-27T05:35:01;101093.47;;;5.76;67.27
13869;BME280;7004;48.206;16.402;2024-01-27T05:37:27;101094.88;;;5.92;66.04
13869;BME280;7004;48.206;16.402;2024-01-27T05:39:53;101092.06;;;5.61;67.21
13869;BME280;7004;48.206;16.402;2024-01-27T05:42:19;101113.75;;;5.69;67.82
13869;BME280;7004;48.206;16.402;2024-01-27T05:44:45;101102.19;;;5.78;67.76
13869;BME280;7004;48.206;16.402;2024-01-27T05:47:11;101102.56;;;5.61;68.04
13869;BME280;7004;48.206;16.402;2024-01-27T05:49:38;101107.69;;;5.65;67.80
13869;BME280;7004;48.206;16.402;2024-01-27T05:52:04;101111.06;;;5.72;67.28
13869;BME280;7004;48.206;16.402;2024-01-27T05:54:31;101113.13;;;5.56;68.77
13869;BME280;7004;48.206;16.402;2024-01-27T05:56:57;101112.13;;;5.63;68.37
13869;BME280;7004;48.206;16.402;2024-01-27T05:59:23;101133.66;;;5.78;66.79
13869;BME280;7004;48.206;16.402;2024-01-27T06:01:49;101123.09;;;5.81;67.19
13869;BME280;7004;48.206;16.402;2024-01-27T06:04:15;101122.16;;;5.85;66.55
13869;BME280;7004;48.206;16.402;2024-01-27T06:06:41;101117.28;;;5.66;67.82
13869;BME280;7004;48.206;16.402;2024-01-27T06:09:08;101126.81;;;5.70;67.73
13869;BME280;7004;48.206;16.402;2024-01-27T06:11:37;101110.09;;;5.76;66.32
13869;BME280;7004;48.206;16.402;2024-01-27T06:14:04;101131.72;;;5.86;67.45
13869;BME280;7004;48.206;16.402;2024-01-27T06:16:30;101127.66;;;5.73;67.39
13869;BME280;7004;48.206;16.402;2024-01-27T06:18:56;101125.84;;;5.76;67.70
13869;BME280;7004;48.206;16.402;2024-01-27T06:21:22;101126.66;;;5.78;67.67
13869;BME280;7004;48.206;16.402;2024-01-27T06:23:48;101136.59;;;5.62;67.21
13869;BME280;7004;48.206;16.402;2024-01-27T06:26:14;101132.97;;;5.68;67.04
13869;BME280;7004;48.206;16.402;2024-01-27T06:28:41;101136.66;;;5.61;67.27
13869;BME280;7004;48.206;16.402;2024-01-27T06:31:07;101133.97;;;5.62;67.94
13869;BME280;7004;48.206;16.402;2024-01-27T06:33:35;101144.16;;;5.78;67.25
13869;BME280;7004;48.206;16.402;2024-01-27T06:36:01;101137.06;;;5.83;66.88
13869;BME280;7004;48.206;16.402;2024-01-27T06:38:28;101126.25;;;5.56;68.57
13869;BME280;7004;48.206;16.402;2024-01-27T06:40:55;101133.97;;;5.64;67.71
13869;BME280;7004;48.206;16.402;2024-01-27T06:43:21;101127.19;;;5.54;67.92
13869;BME280;7004;48.206;16.402;2024-01-27T06:45:48;101132.56;;;5.46;67.69
13869;BME280;7004;48.206;16.402;2024-01-27T06:48:14;101117.63;;;5.50;68.31
13869;BME280;7004;48.206;16.402;2024-01-27T06:50:40;101120.16;;;5.56;66.60
13869;BME280;7004;48.206;16.402;2024-01-27T06:53:06;101129.72;;;5.58;66.54
13869;BME280;7004;48.206;16.402;2024-01-27T06:55:33;101124.00;;;5.36;67.31
13869;BME280;7004;48.206;16.402;2024-01-27T06:57:59;101115.22;;;5.39;66.31
13869;BME280;7004;48.206;16.402;2024-01-27T07:00:25;101127.31;;;5.46;65.54
13869;BME280;7004;48.206;16.402;2024-01-27T07:02:51;101119.53;;;5.43;65.10
13869;BME280;7004;48.206;16.402;2024-01-27T07:05:17;101126.19;;;5.59;63.92
13869;BME280;7004;48.206;16.402;2024-01-27T07:07:43;101111.75;;;5.37;64.71
13869;BME280;7004;48.206;16.402;2024-01-27T07:10:10;101129.31;;;5.33;64.45
13869;BME280;7004;48.206;16.402;2024-01-27T07:12:37;101120.38;;;5.43;64.07
13869;BME280;7004;48.206;16.402;2024-01-27T07:15:04;101125.88;;;5.31;65.27
13869;BME280;7004;48.206;16.402;2024-01-27T07:17:30;101135.31;;;5.40;64.99
13869;BME280;7004;48.206;16.402;2024-01-27T07:19:56;101135.69;;;5.20;66.75
13869;BME280;7004;48.206;16.402;2024-01-27T07:22:23;101137.19;;;5.35;66.58
13869;BME280;7004;48.206;16.402;2024-01-27T07:24:49;101112.66;;;5.36;67.25
13869;BME280;7004;48.206;16.402;2024-01-27T07:27:19;101125.88;;;5.31;67.12
13869;BME280;7004;48.206;16.402;2024-01-27T07:29:45;101126.63;;;5.38;67.53
13869;BME280;7004;48.206;16.402;2024-01-27T07:32:11;101114.28;;;5.43;67.78
13869;BME280;7004;48.206;16.402;2024-01-27T07:34:45;101114.50;;;5.32;66.90
13869;BME280;7004;48.206;16.402;2024-01-27T07:37:11;101125.63;;;5.45;66.54
13869;BME280;7004;48.206;16.402;2024-01-27T07:39:37;101114.06;;;5.52;66.44
13869;BME280;7004;48.206;16.402;2024-01-27T07:42:05;101123.59;;;5.58;66.04
13869;BME280;7004;48.206;16.402;2024-01-27T07:44:32;101122.00;;;5.49;65.49
13869;BME280;7004;48.206;16.402;2024-01-27T07:46:58;101119.47;;;5.46;65.95
13869;BME280;7004;48.206;16.402;2024-01-27T07:49:24;101112.38;;;5.50;66.03
13869;BME280;7004;48.206;16.402;2024-01-27T07:51:50;101117.84;;;5.40;66.18
13869;BME280;7004;48.206;16.402;2024-01-27T07:54:16;101123.78;;;5.48;65.89
13869;BME280;7004;48.206;16.402;2024-01-27T07:56:42;101120.22;;;5.53;65.34
13869;BME280;7004;48.206;16.402;2024-01-27T07:59:08;101124.63;;;5.51;65.41
13869;BME280;7004;48.206;16.402;2024-01-27T08:01:40;101115.34;;;5.76;64.74
13869;BME280;7004;48.206;16.402;2024-01-27T08:04:06;101129.13;;;5.86;63.52
13869;BME280;7004;48.206;16.402;2024-01-27T08:06:32;101131.59;;;5.95;63.42
13869;BME280;7004;48.206;16.402;2024-01-27T08:08:58;101135.56;;;6.13;62.51
13869;BME280;7004;48.206;16.402;2024-01-27T08:11:25;101139.88;;;6.16;61.73
13869;BME280;7004;48.206;16.402;2024-01-27T08:13:52;101135.50;;;6.16;61.68
13869;BME280;7004;48.206;16.402;2024-01-27T08:16:19;101130.91;;;6.26;61.61
13869;BME280;7004;48.206;16.402;2024-01-27T08:18:45;101136.59;;;6.43;61.16
13869;BME280;7004;48.206;16.402;2024-01-27T08:21:12;101135.72;;;6.80;59.60
13869;BME280;7004;48.206;16.402;2024-01-27T08:23:38;101136.41;;;6.87;58.88
13869;BME280;7004;48.206;16.402;2024-01-27T08:26:04;101147.91;;;6.47;59.60
13869;BME280;7004;48.206;16.402;2024-01-27T08:28:31;101142.59;;;6.48;58.61
13869;BME280;7004;48.206;16.402;2024-01-27T08:30:57;101138.84;;;6.60;58.68
13869;BME280;7004;48.206;16.402;2024-01-27T08:33:26;101144.16;;;6.57;58.63
13869;BME280;7004;48.206;16.402;2024-01-27T08:35:52;101136.31;;;6.90;57.92
13869;BME280;7004;48.206;16.402;2024-01-27T08:38:18;101137.78;;;6.67;59.01
13869;BME280;7004;48.206;16.402;2024-01-27T08:40:44;101138.34;;;7.13;57.31
13869;BME280;7004;48.206;16.402;2024-01-27T08:43:11;101135.56;;;6.85;57.62
13869;BME280;7004;48.206;16.402;2024-01-27T08:45:40;101135.91;;;6.72;58.80
13869;BME280;7004;48.206;16.402;2024-01-27T08:48:07;101148.22;;;7.05;57.70
13869;BME280;7004;48.206;16.402;2024-01-27T08:50:33;101147.38;;;6.68;58.41
13869;BME280;7004;48.206;16.402;2024-01-27T08:52:59;101156.94;;;6.72;57.78
13869;BME280;7004;48.206;16.402;2024-01-27T08:55:25;101160.19;;;6.82;56.71
13869;BME280;7004;48.206;16.402;2024-01-27T08:57:52;101168.28;;;7.09;56.68
13869;BME280;7004;48.206;16.402;2024-01-27T09:00:19;101162.59;;;6.55;58.33
13869;BME280;7004;48.206;16.402;2024-01-27T09:02:45;101155.22;;;7.06;57.11
13869;BME280;7004;48.206;16.402;2024-01-27T09:05:11;101155.66;;;6.87;56.60
13869;BME280;7004;48.206;16.402;2024-01-27T09:07:38;101153.72;;;6.95;56.68
13869;BME280;7004;48.206;16.402;2024-01-27T09:10:04;101166.25;;;6.86;57.44
13869;BME280;7004;48.206;16.402;2024-01-27T09:12:31;101165.34;;;7.52;55.52
13869;BME280;7004;48.206;16.402;2024-01-27T09:14:57;101132.75;;;6.92;55.91
13869;BME280;7004;48.206;16.402;2024-01-27T09:17:23;101155.78;;;7.17;55.96
13869;BME280;7004;48.206;16.402;2024-01-27T09:19:49;101141.53;;;7.57;55.69
13869;BME280;7004;48.206;16.402;2024-01-27T09:22:16;101151.94;;;7.61;55.48
13869;BME280;7004;48.206;16.402;2024-01-27T09:24:43;101129.28;;;7.85;54.00
13869;BME280;7004;48.206;16.402;2024-01-27T09:27:09;101144.34;;;7.80;54.05
13869;BME280;7004;48.206;16.402;2024-01-27T09:29:35;101155.94;;;7.75;54.29
13869;BME280;7004;48.206;16.402;2024-01-27T09:32:01;101145.03;;;7.57;54.82
13869;BME280;7004;48.206;16.402;2024-01-27T09:34:27;101149.78;;;7.44;55.54
13869;BME280;7004;48.206;16.402;2024-01-27T09:36:53;101140.44;;;9.30;51.31
13869;BME280;7004;48.206;16.402;2024-01-27T09:39:19;101147.16;;;8.62;51.31
13869;BME280;7004;48.206;16.402;2024-01-27T09:41:47;101156.00;;;8.03;52.74
13869;BME280;7004;48.206;16.402;2024-01-27T09:44:18;101147.09;;;8.63;51.89
13869;BME280;7004;48.206;16.402;2024-01-27T09:46:46;101168.94;;;7.81;54.02
13869;BME280;7004;48.206;16.402;2024-01-27T09:49:15;101168.59;;;8.51;52.74
13869;BME280;7004;48.206;16.402;2024-01-27T09:51:42;101172.66;;;7.74;54.25
13869;BME280;7004;48.206;16.402;2024-01-27T09:54:08;101181.44;;;7.73;54.04
13869;BME280;7004;48.206;16.402;2024-01-27T09:56:34;101178.00;;;7.71;55.29
13869;BME280;7004;48.206;16.402;2024-01-27T09:59:01;101168.13;;;7.79;52.51
13869;BME280;7004;48.206;16.402;2024-01-27T10:01:27;101170.94;;;8.02;53.34
13869;BME280;7004;48.206;16.402;2024-01-27T10:03:55;101175.41;;;7.69;53.64
13869;BME280;7004;48.206;16.402;2024-01-27T10:06:21;101175.97;;;8.10;52.48
13869;BME280;7004;48.206;16.402;2024-01-27T10:08:54;101165.03;;;7.94;53.90
13869;BME280;7004;48.206;16.402;2024-01-27T10:11:21;101168.63;;;7.92;53.09
13869;BME280;7004;48.206;16.402;2024-01-27T10:13:57;101162.56;;;8.18;52.00
13869;BME280;7004;48.206;16.402;2024-01-27T10:16:26;101172.97;;;7.93;53.05
13869;BME280;7004;48.206;16.402;2024-01-27T10:19:02;101168.56;;;7.93;52.19
13869;BME280;7004;48.206;16.402;2024-01-27T10:21:29;101178.19;;;8.53;50.18
13869;BME280;7004;48.206;16.402;2024-01-27T10:23:55;101158.59;;;10.55;47.31
13869;BME280;7004;48.206;16.402;2024-01-27T10:26:21;101175.13;;;9.19;48.02
13869;BME280;7004;48.206;16.402;2024-01-27T10:28:55;101178.94;;;7.99;51.85
13869;BME280;7004;48.206;16.402;2024-01-27T10:31:27;101186.59;;;8.91;49.71
13869;BME280;7004;48.206;16.402;2024-01-27T10:33:55;101187.22;;;7.85;52.40
13869;BME280;7004;48.206;16.402;2024-01-27T10:36:23;101192.13;;;8.57;50.73
13869;BME280;7004;48.206;16.402;2024-01-27T10:38:49;101189.69;;;8.78;50.51
13869;BME280;7004;48.206;16.402;2024-01-27T10:41:23;101194.34;;;9.48;49.95
13869;BME280;7004;48.206;16.402;2024-01-27T10:43:54;101195.09;;;8.46;51.15
13869;BME280;7004;48.206;16.402;2024-01-27T10:46:22;101196.22;;;8.66;51.19
13869;BME280;7004;48.206;16.402;2024-01-27T10:48:52;101199.78;;;8.65;51.13
13869;BME280;7004;48.206;16.402;2024-01-27T10:51:31;101194.84;;;9.07;50.20
13869;BME280;7004;48.206;16.402;2024-01-27T10:54:05;101185.81;;;9.88;48.34
13869;BME280;7004;48.206;16.402;2024-01-27T10:56:33;101183.66;;;9.01;49.50
13869;BME280;7004;48.206;16.402;2024-01-27T10:59:00;101183.00;;;8.39;51.28
13869;BME280;7004;48.206;16.402;2024-01-27T11:01:28;101175.41;;;8.28;51.68
13869;BME280;7004;48.206;16.402;2024-01-27T11:03:58;101182.75;;;9.02;49.83
13869;BME280;7004;48.206;16.402;2024-01-27T11:06:25;101182.72;;;8.19;51.88
13869;BME280;7004;48.206;16.402;2024-01-27T11:08:53;101172.34;;;9.24;50.29
13869;BME280;7004;48.206;16.402;2024-01-27T11:11:20;101179.00;;;7.34;53.74
13869;BME280;7004;48.206;16.402;2024-01-27T11:13:46;101192.28;;;7.29;54.20
13869;BME280;7004;48.206;16.402;2024-01-27T11:16:18;101190.66;;;7.56;53.77
13869;BME280;7004;48.206;16.402;2024-01-27T11:18:45;101182.53;;;7.33;54.17
13869;BME280;7004;48.206;16.402;2024-01-27T11:21:15;101176.88;;;7.48;54.93
13869;BME280;7004;48.206;16.402;2024-01-27T11:23:42;101196.44;;;7.38;53.78
13869;BME280;7004;48.206;16.402;2024-01-27T11:26:09;101206.63;;;7.16;54.99
13869;BME280;7004;48.206;16.402;2024-01-27T11:28:37;101193.34;;;6.88;56.08
13869;BME280;7004;48.206;16.402;2024-01-27T11:31:04;101200.94;;;7.34;54.93
13869;BME280;7004;48.206;16.402;2024-01-27T11:33:31;101199.28;;;7.30;55.22
13869;BME280;7004;48.206;16.402;2024-01-27T11:36:05;101209.59;;;7.38;55.23
13869;BME280;7004;48.206;16.402;2024-01-27T11:38:32;101207.72;;;7.09;55.41
13869;BME280;7004;48.206;16.402;2024-01-27T11:41:00;101215.44;;;6.79;56.04
13869;BME280;7004;48.206;16.402;2024-01-27T11:43:26;101204.28;;;7.05;55.45
13869;BME280;7004;48.206;16.402;2024-01-27T11:46:00;101205.88;;;7.12;55.04
13869;BME280;7004;48.206;16.402;2024-01-27T11:48:27;101203.50;;;7.69;54.41
13869;BME280;7004;48.206;16.402;2024-01-27T11:51:12;101199.31;;;7.91;54.13
13869;BME280;7004;48.206;16.402;2024-01-27T11:53:38;101205.03;;;7.44;54.28
13869;BME280;7004;48.206;16.402;2024-01-27T11:56:05;101218.25;;;7.09;53.40
13869;BME280;7004;48.206;16.402;2024-01-27T11:58:32;101212.78;;;7.49;51.92
13869;BME280;7004;48.206;16.402;2024-01-27T12:00:59;101218.94;;;7.15;53.45
13869;BME280;7004;48.206;16.402;2024-01-27T12:03:25;101213.53;;;7.54;51.30
13869;BME280;7004;48.206;16.402;2024-01-27T12:05:51;101200.97;;;7.33;52.55
13869;BME280;7004;48.206;16.402;2024-01-27T12:08:17;101202.00;;;7.27;53.14
13869;BME280;7004;48.206;16.402;2024-01-27T12:10:44;101201.28;;;7.53;52.50
13869;BME280;7004;48.206;16.402;2024-01-27T12:13:10;101198.25;;;7.36;53.15
13869;BME280;7004;48.206;16.402;2024-01-27T12:15:36;101198.44;;;7.61;52.60
13869;BME280;7004;48.206;16.402;2024-01-27T12:18:04;101190.56;;;7.91;50.84
13869;BME280;7004;48.206;16.402;2024-01-27T12:20:31;101206.28;;;7.62;51.86
13869;BME280;7004;48.206;16.402;2024-01-27T12:23:06;101204.88;;;7.51;51.39
13869;BME280;7004;48.206;16.402;2024-01-27T12:25:33;101203.44;;;8.01;50.24
13869;BME280;7004;48.206;16.402;2024-01-27T12:28:03;101200.56;;;8.09;50.37
13869;BME280;7004;48.206;16.402;2024-01-27T12:30:32;101203.06;;;7.84;51.08
13869;BME280;7004;48.206;16.402;2024-01-27T12:33:00;101205.81;;;8.10;50.52
13869;BME280;7004;48.206;16.402;2024-01-27T12:35:29;101197.97;;;8.37;50.09
13869;BME280;7004;48.206;16.402;2024-01-27T12:37:55;101197.16;;;8.05;50.41
13869;BME280;7004;48.206;16.402;2024-01-27T12:40:22;101195.50;;;8.03;49.55
13869;BME280;7004;48.206;16.402;2024-01-27T12:42:49;101180.38;;;8.38;49.13
13869;BME280;7004;48.206;16.402;2024-01-27T12:45:16;101186.78;;;9.12;47.95
13869;BME280;7004;48.206;16.402;2024-01-27T12:47:42;101185.38;;;8.75;47.89
13869;BME280;7004;48.206;16.402;2024-01-27T12:50:09;101179.00;;;8.82;48.89
13869;BME280;7004;48.206;16.402;2024-01-27T12:52:36;101175.78;;;8.99;47.75
13869;BME280;7004;48.206;16.402;2024-01-27T12:55:04;101169.63;;;9.50;47.00
13869;BME280;7004;48.206;16.402;2024-01-27T12:57:31;101181.22;;;9.21;47.47